createdAt,value
2019-05-22T00:01:58.923Z,14.60
2019-05-22T00:04:50.676Z,14.60
2019-05-22T00:07:38.589Z,14.60
2019-05-22T00:10:26.636Z,14.50
2019-05-22T00:13:18.253Z,14.40
2019-05-22T00:16:05.858Z,14.40
2019-05-22T00:18:53.691Z,14.50
2019-05-22T00:21:42.836Z,14.50
2019-05-22T00:24:29.955Z,14.50
2019-05-22T00:27:17.896Z,14.50
2019-05-22T00:30:09.501Z,14.60
2019-05-22T00:32:57.898Z,14.50
2019-05-22T00:35:45.457Z,14.60
2019-05-22T00:38:36.194Z,14.60
2019-05-22T00:41:24.687Z,14.60
2019-05-22T00:44:13.849Z,14.60
2019-05-22T00:47:01.767Z,14.60
2019-05-22T00:49:52.450Z,14.50
2019-05-22T00:52:44.781Z,14.50
2019-05-22T00:55:43.916Z,14.50
2019-05-22T00:58:50.691Z,14.50
2019-05-22T01:01:45.728Z,14.50
2019-05-22T01:04:35.424Z,14.50
2019-05-22T01:07:31.720Z,14.40
2019-05-22T01:10:18.620Z,14.50
2019-05-22T01:13:07.555Z,14.60
2019-05-22T01:15:55.790Z,14.50
2019-05-22T01:18:43.716Z,14.50
2019-05-22T01:21:33.310Z,14.50
2019-05-22T01:24:20.731Z,14.60
2019-05-22T01:27:09.461Z,14.70
2019-05-22T01:29:57.493Z,14.30
2019-05-22T01:32:46.354Z,14.40
2019-05-22T01:35:35.675Z,14.50
2019-05-22T01:38:23.191Z,14.50
2019-05-22T01:41:17.942Z,14.50
2019-05-22T01:44:06.790Z,14.50
2019-05-22T01:46:56.458Z,14.60
2019-05-22T01:49:51.502Z,14.50
2019-05-22T01:52:40.200Z,14.40
2019-05-22T01:55:27.819Z,14.20
2019-05-22T01:58:15.848Z,14.20
2019-05-22T02:01:05.388Z,14.20
2019-05-22T02:04:03.922Z,14.20
2019-05-22T02:06:51.161Z,14.30
2019-05-22T02:09:40.671Z,14.30
2019-05-22T02:12:35.316Z,14.40
2019-05-22T02:15:24.804Z,14.40
2019-05-22T02:18:16.588Z,14.40
2019-05-22T02:21:04.477Z,14.40
2019-05-22T02:23:52.542Z,14.40
2019-05-22T02:26:40.423Z,14.40
2019-05-22T02:29:29.156Z,14.40
2019-05-22T02:32:17.735Z,14.30
2019-05-22T02:35:08.427Z,14.30
2019-05-22T02:37:57.238Z,14.40
2019-05-22T02:40:49.388Z,14.40
2019-05-22T02:43:37.182Z,14.40
2019-05-22T02:46:24.589Z,14.50
2019-05-22T02:49:13.899Z,14.60
2019-05-22T02:52:01.931Z,14.50
2019-05-22T02:54:49.829Z,14.50
2019-05-22T02:57:37.708Z,14.50
2019-05-22T03:00:29.342Z,14.50
2019-05-22T03:03:20.243Z,14.50
2019-05-22T03:06:14.077Z,14.40
2019-05-22T03:09:05.461Z,14.50
2019-05-22T03:12:02.235Z,14.40
2019-05-22T03:14:48.925Z,14.40
2019-05-22T03:17:38.607Z,14.50
2019-05-22T03:20:26.707Z,14.50
2019-05-22T03:23:26.695Z,14.60
2019-05-22T03:26:16.801Z,14.50
2019-05-22T03:29:04.597Z,14.50
2019-05-22T03:31:52.783Z,14.50
2019-05-22T03:34:40.664Z,14.40
2019-05-22T03:37:27.874Z,14.50
2019-05-22T03:40:15.820Z,14.50
2019-05-22T03:43:06.148Z,14.40
2019-05-22T03:45:55.981Z,14.40
2019-05-22T03:48:44.761Z,14.40
2019-05-22T03:51:32.977Z,14.40
2019-05-22T03:54:21.693Z,14.40
2019-05-22T03:57:10.348Z,14.40
2019-05-22T03:59:58.295Z,14.30
2019-05-22T04:02:51.220Z,14.30
2019-05-22T04:05:38.681Z,14.40
2019-05-22T04:08:26.444Z,14.40
2019-05-22T04:11:14.437Z,14.40
2019-05-22T04:14:01.940Z,14.30
2019-05-22T04:16:51.137Z,14.30
2019-05-22T04:19:49.440Z,14.50
2019-05-22T04:22:29.739Z,14.50
2019-05-22T04:25:18.798Z,14.50
2019-05-22T04:28:06.099Z,14.60
2019-05-22T04:30:53.604Z,14.60
2019-05-22T04:33:40.750Z,14.60
2019-05-22T04:36:29.107Z,14.60
2019-05-22T04:39:20.487Z,14.60
2019-05-22T04:42:11.720Z,14.50
2019-05-22T04:45:15.198Z,14.30
2019-05-22T04:48:03.612Z,14.30
2019-05-22T04:50:51.930Z,14.40
2019-05-22T04:53:39.400Z,14.40
2019-05-22T04:56:28.133Z,14.30
2019-05-22T04:59:16.285Z,14.30
2019-05-22T05:02:05.180Z,14.30
2019-05-22T05:04:54.075Z,14.30
2019-05-22T05:07:41.570Z,14.30
2019-05-22T05:10:28.911Z,14.30
2019-05-22T05:13:16.636Z,14.40
2019-05-22T05:16:04.718Z,14.40
2019-05-22T05:18:51.992Z,14.40
2019-05-22T05:21:38.867Z,14.60
2019-05-22T05:24:25.996Z,14.50
2019-05-22T05:27:13.641Z,14.30
2019-05-22T05:30:00.742Z,14.20
2019-05-22T05:32:47.844Z,14.10
2019-05-22T05:35:35.910Z,14.20
2019-05-22T05:38:38.357Z,14.20
2019-05-22T05:41:25.479Z,14.20
2019-05-22T05:44:12.836Z,14.20
2019-05-22T05:47:00.668Z,14.10
2019-05-22T05:49:49.115Z,14.10
2019-05-22T05:52:37.896Z,14.10
2019-05-22T05:55:27.419Z,14.20
2019-05-22T05:58:29.424Z,14.20
2019-05-22T06:01:20.034Z,14.20
2019-05-22T06:04:08.291Z,14.30
2019-05-22T06:07:00.889Z,14.50
2019-05-22T06:09:50.111Z,14.70
2019-05-22T06:12:37.558Z,14.80
2019-05-22T06:15:47.216Z,14.80
2019-05-22T06:18:37.310Z,14.90
2019-05-22T06:21:24.771Z,15.10
2019-05-22T06:24:33.021Z,15.10
2019-05-22T06:27:25.432Z,15.20
2019-05-22T06:30:21.580Z,15.10
2019-05-22T06:33:13.569Z,15.30
2019-05-22T06:36:04.732Z,15.20
2019-05-22T06:38:59.312Z,15.30
2019-05-22T06:41:48.049Z,15.30
2019-05-22T06:44:36.190Z,15.40
2019-05-22T06:47:25.615Z,15.60
2019-05-22T06:50:12.847Z,15.60
2019-05-22T06:53:09.876Z,15.50
2019-05-22T06:55:51.258Z,15.60
2019-05-22T06:58:38.337Z,15.80
2019-05-22T07:01:25.913Z,15.70
2019-05-22T07:04:14.128Z,15.90
2019-05-22T07:07:01.350Z,15.80
2019-05-22T07:09:49.608Z,15.80
2019-05-22T07:12:37.072Z,15.90
2019-05-22T07:15:27.240Z,15.90
2019-05-22T07:18:16.178Z,16.00
2019-05-22T07:21:04.166Z,15.70
2019-05-22T07:23:51.354Z,15.90
2019-05-22T07:26:39.044Z,15.90
2019-05-22T07:29:27.026Z,16.00
2019-05-22T07:32:14.063Z,15.90
2019-05-22T07:35:02.743Z,15.90
2019-05-22T07:37:50.792Z,16.00
2019-05-22T07:40:38.252Z,15.80
2019-05-22T07:43:26.207Z,15.70
2019-05-22T07:46:16.623Z,15.60
2019-05-22T07:49:04.887Z,15.70
2019-05-22T07:52:00.668Z,15.80
2019-05-22T07:54:42.005Z,15.90
2019-05-22T07:57:30.413Z,16.00
2019-05-22T08:00:18.483Z,16.10
2019-05-22T08:03:06.677Z,16.10
2019-05-22T08:05:56.163Z,16.00
2019-05-22T08:08:44.432Z,16.00
2019-05-22T08:11:31.867Z,15.90
2019-05-22T08:14:21.238Z,15.80
2019-05-22T08:17:10.530Z,16.00
2019-05-22T08:19:57.587Z,16.20
2019-05-22T08:22:47.483Z,16.40
2019-05-22T08:25:34.821Z,16.50
2019-05-22T08:28:22.209Z,16.70
2019-05-22T08:31:11.107Z,16.80
2019-05-22T08:33:59.406Z,16.40
2019-05-22T08:36:49.143Z,16.20
2019-05-22T08:39:38.073Z,16.40
2019-05-22T08:42:26.683Z,16.40
2019-05-22T08:45:17.889Z,16.50
2019-05-22T08:48:05.817Z,16.10
2019-05-22T08:50:53.979Z,16.20
2019-05-22T08:53:47.461Z,16.40
2019-05-22T08:56:39.152Z,16.50
2019-05-22T08:59:26.914Z,16.30
2019-05-22T09:02:15.279Z,16.30
2019-05-22T09:05:02.153Z,16.10
2019-05-22T09:07:49.539Z,16.10
2019-05-22T09:10:37.589Z,16.10
2019-05-22T09:13:25.080Z,16.00
2019-05-22T09:16:14.337Z,16.30
2019-05-22T09:19:02.250Z,16.20
2019-05-22T09:21:49.182Z,16.30
2019-05-22T09:24:36.747Z,16.40
2019-05-22T09:27:24.150Z,16.60
2019-05-22T09:30:12.618Z,16.70
2019-05-22T09:33:00.397Z,16.80
2019-05-22T09:35:48.221Z,16.80
2019-05-22T09:38:35.680Z,16.80
2019-05-22T09:41:22.874Z,16.70
2019-05-22T09:44:09.977Z,16.90
2019-05-22T09:46:57.217Z,17.10
2019-05-22T09:49:44.390Z,16.80
2019-05-22T09:52:32.310Z,16.60
2019-05-22T09:55:19.641Z,16.40
2019-05-22T09:58:08.341Z,16.60
2019-05-22T10:00:55.859Z,16.90
2019-05-22T10:03:43.122Z,17.20
2019-05-22T10:06:30.273Z,17.10
2019-05-22T10:09:17.485Z,17.00
2019-05-22T10:12:05.579Z,17.20
2019-05-22T10:14:53.089Z,17.30
2019-05-22T10:17:43.415Z,17.30
2019-05-22T10:20:31.224Z,17.40
2019-05-22T10:23:18.694Z,16.80
2019-05-22T10:26:06.287Z,16.70
2019-05-22T10:28:53.758Z,16.70
2019-05-22T10:31:40.440Z,17.00
2019-05-22T10:34:27.618Z,17.00
2019-05-22T10:37:14.787Z,16.50
2019-05-22T10:40:02.816Z,16.80
2019-05-22T10:42:53.597Z,16.70
2019-05-22T10:45:44.916Z,17.10
2019-05-22T10:48:32.459Z,17.20
2019-05-22T10:51:20.259Z,17.40
2019-05-22T10:54:07.341Z,17.10
2019-05-22T10:56:54.522Z,17.00
2019-05-22T10:59:41.971Z,17.00
2019-05-22T11:02:29.181Z,17.00
2019-05-22T11:05:17.868Z,16.80
2019-05-22T11:08:05.412Z,16.50
2019-05-22T11:10:53.009Z,16.80
2019-05-22T11:13:40.352Z,17.10
2019-05-22T11:16:27.796Z,17.10
2019-05-22T11:19:15.582Z,17.30
2019-05-22T11:22:03.213Z,17.30
2019-05-22T11:24:50.378Z,17.30
2019-05-22T11:27:39.152Z,17.20
2019-05-22T11:30:26.678Z,17.10
2019-05-22T11:33:14.533Z,17.10
2019-05-22T11:36:03.318Z,17.10
2019-05-22T11:38:51.563Z,17.30
2019-05-22T11:41:39.886Z,17.50
2019-05-22T11:44:27.640Z,17.60
2019-05-22T11:47:17.130Z,17.60
2019-05-22T11:50:09.818Z,17.60
2019-05-22T11:52:56.747Z,18.00
2019-05-22T11:55:46.090Z,18.20
2019-05-22T11:58:32.910Z,17.80
2019-05-22T12:01:20.337Z,17.70
2019-05-22T12:04:11.264Z,17.40
2019-05-22T12:06:59.413Z,17.50
2019-05-22T12:09:47.218Z,17.40
2019-05-22T12:12:35.630Z,17.50
2019-05-22T12:15:26.278Z,17.60
2019-05-22T12:18:15.161Z,17.60
2019-05-22T12:21:02.774Z,17.40
2019-05-22T12:23:50.887Z,17.60
2019-05-22T12:26:39.804Z,17.40
2019-05-22T12:29:28.792Z,17.80
2019-05-22T12:32:16.327Z,18.50
2019-05-22T12:35:04.656Z,18.50
2019-05-22T12:37:57.509Z,18.60
2019-05-22T12:40:46.456Z,18.80
2019-05-22T12:43:35.094Z,18.80
2019-05-22T12:46:22.552Z,18.70
2019-05-22T12:49:11.652Z,18.80
2019-05-22T12:52:00.820Z,18.90
2019-05-22T12:54:52.602Z,19.40
2019-05-22T12:57:37.511Z,19.20
2019-05-22T13:00:29.183Z,19.40
2019-05-22T13:03:16.790Z,19.60
2019-05-22T13:06:05.073Z,19.80
2019-05-22T13:08:53.474Z,20.00
2019-05-22T13:11:41.276Z,19.90
2019-05-22T13:14:28.852Z,19.70
2019-05-22T13:17:17.078Z,19.60
2019-05-22T13:20:07.589Z,19.50
2019-05-22T13:22:57.033Z,19.40
2019-05-22T13:25:45.193Z,19.40
2019-05-22T13:28:33.534Z,19.20
2019-05-22T13:31:21.132Z,19.60
2019-05-22T13:34:08.846Z,19.80
2019-05-22T13:36:57.012Z,20.00
2019-05-22T13:39:44.129Z,20.10
2019-05-22T13:42:31.642Z,20.70
2019-05-22T13:45:29.075Z,20.50
2019-05-22T13:48:10.393Z,20.50
2019-05-22T13:50:59.145Z,20.60
2019-05-22T13:53:46.176Z,20.90
2019-05-22T13:56:33.503Z,20.90
2019-05-22T13:59:21.432Z,20.80
2019-05-22T14:02:08.689Z,20.40
2019-05-22T14:04:55.722Z,20.60
2019-05-22T14:07:42.953Z,20.60
2019-05-22T14:10:31.283Z,20.00
2019-05-22T14:13:19.203Z,20.00
2019-05-22T14:16:06.147Z,20.20
2019-05-22T14:18:53.309Z,20.10
2019-05-22T14:21:40.276Z,20.50
2019-05-22T14:24:27.447Z,20.00
2019-05-22T14:27:14.702Z,20.30
2019-05-22T14:30:05.196Z,20.50
2019-05-22T14:32:52.614Z,20.90
2019-05-22T14:35:48.366Z,21.30
2019-05-22T14:38:31.141Z,21.40
2019-05-22T14:41:18.234Z,21.20
2019-05-22T14:44:05.351Z,21.50
2019-05-22T14:46:52.711Z,21.80
2019-05-22T14:49:40.565Z,21.70
2019-05-22T14:52:28.371Z,21.70
2019-05-22T14:55:17.972Z,21.40
2019-05-22T14:58:06.270Z,20.90
2019-05-22T15:00:54.016Z,21.00
2019-05-22T15:03:41.233Z,21.30
2019-05-22T15:06:28.457Z,21.30
2019-05-22T15:09:16.335Z,21.10
2019-05-22T15:12:03.697Z,20.80
2019-05-22T15:14:51.079Z,20.80
2019-05-22T15:17:39.181Z,20.50
2019-05-22T15:20:29.021Z,20.50
2019-05-22T15:23:17.008Z,21.00
2019-05-22T15:26:05.049Z,21.40
2019-05-22T15:28:52.333Z,21.80
2019-05-22T15:31:40.152Z,21.60
2019-05-22T15:34:28.886Z,21.60
2019-05-22T15:37:19.383Z,21.50
2019-05-22T15:40:08.954Z,21.60
2019-05-22T15:42:56.309Z,21.90
2019-05-22T15:45:43.777Z,21.70
2019-05-22T15:48:33.874Z,21.30
2019-05-22T15:51:25.946Z,21.90
2019-05-22T15:54:14.283Z,22.00
2019-05-22T15:57:03.519Z,22.10
2019-05-22T15:59:51.967Z,22.00
2019-05-22T16:02:41.306Z,21.70
2019-05-22T16:05:29.678Z,22.30
2019-05-22T16:08:18.219Z,21.90
2019-05-22T16:11:09.326Z,21.80
2019-05-22T16:13:59.621Z,21.50
2019-05-22T16:16:49.307Z,21.70
2019-05-22T16:19:36.987Z,22.20
2019-05-22T16:22:25.272Z,22.20
2019-05-22T16:25:13.825Z,22.00
2019-05-22T16:28:02.721Z,22.00
2019-05-22T16:30:49.955Z,22.10
2019-05-22T16:33:40.727Z,21.70
2019-05-22T16:36:29.475Z,21.80
2019-05-22T16:39:17.604Z,21.70
2019-05-22T16:42:05.908Z,22.20
2019-05-22T16:44:53.087Z,22.40
2019-05-22T16:47:41.250Z,22.60
2019-05-22T16:50:29.032Z,22.90
2019-05-22T16:53:17.844Z,22.90
2019-05-22T16:56:05.783Z,22.70
2019-05-22T16:58:54.594Z,22.60
2019-05-22T17:01:57.821Z,22.30
2019-05-22T17:04:31.389Z,21.80
2019-05-22T17:07:19.568Z,21.80
2019-05-22T17:10:08.064Z,21.60
2019-05-22T17:12:57.306Z,21.80
2019-05-22T17:15:45.425Z,21.80
2019-05-22T17:18:46.860Z,21.80
2019-05-22T17:21:23.257Z,22.00
2019-05-22T17:24:11.663Z,22.40
2019-05-22T17:26:58.713Z,23.10
2019-05-22T17:29:46.324Z,23.30
2019-05-22T17:32:33.633Z,23.20
2019-05-22T17:35:22.775Z,23.30
2019-05-22T17:38:10.595Z,23.20
2019-05-22T17:40:59.060Z,22.80
2019-05-22T17:43:46.503Z,23.00
2019-05-22T17:46:33.946Z,23.40
2019-05-22T17:49:21.221Z,23.10
2019-05-22T17:52:12.002Z,23.10
2019-05-22T17:54:58.339Z,23.10
2019-05-22T17:57:45.055Z,23.20
2019-05-22T18:00:36.741Z,23.10
2019-05-22T18:03:23.768Z,23.20
2019-05-22T18:06:10.383Z,23.00
2019-05-22T18:08:57.475Z,22.70
2019-05-22T18:11:44.521Z,22.60
2019-05-22T18:14:31.578Z,22.20
2019-05-22T18:17:19.219Z,21.80
2019-05-22T18:20:07.847Z,21.50
2019-05-22T18:22:54.826Z,21.20
2019-05-22T18:25:40.947Z,20.90
2019-05-22T18:28:28.063Z,20.70
2019-05-22T18:31:15.156Z,20.50
2019-05-22T18:34:01.890Z,20.30
2019-05-22T18:36:49.205Z,19.90
2019-05-22T18:39:36.868Z,19.60
2019-05-22T18:42:24.450Z,19.40
2019-05-22T18:45:13.261Z,19.20
2019-05-22T18:48:00.528Z,19.00
2019-05-22T18:50:48.240Z,18.80
2019-05-22T18:53:35.549Z,18.60
2019-05-22T18:56:22.684Z,18.50
2019-05-22T18:59:10.148Z,18.20
2019-05-22T19:01:57.443Z,17.80
2019-05-22T19:04:44.546Z,17.50
2019-05-22T19:07:32.010Z,17.50
2019-05-22T19:10:20.148Z,17.20
2019-05-22T19:13:07.830Z,17.00
2019-05-22T19:15:55.324Z,16.70
2019-05-22T19:18:42.622Z,16.40
2019-05-22T19:21:30.132Z,16.10
2019-05-22T19:24:17.667Z,15.90
2019-05-22T19:27:05.189Z,15.80
2019-05-22T19:29:52.601Z,15.60
2019-05-22T19:32:40.089Z,15.50
2019-05-22T19:35:27.187Z,15.40
2019-05-22T19:38:14.722Z,15.40
2019-05-22T19:41:02.788Z,15.10
2019-05-22T19:43:50.228Z,15.00
2019-05-22T19:46:37.414Z,14.80
2019-05-22T19:49:25.174Z,14.70
2019-05-22T19:52:12.492Z,14.60
2019-05-22T19:55:00.182Z,14.50
2019-05-22T19:57:47.088Z,14.30
2019-05-22T20:00:33.520Z,14.20
2019-05-22T20:03:21.005Z,14.10
2019-05-22T20:06:08.571Z,14.00
2019-05-22T20:08:56.252Z,13.80
2019-05-22T20:11:43.985Z,13.70
2019-05-22T20:14:31.012Z,13.70
2019-05-22T20:17:18.154Z,13.70
2019-05-22T20:20:08.522Z,13.60
2019-05-22T20:22:56.598Z,13.60
2019-05-22T20:25:43.638Z,13.40
2019-05-22T20:28:31.727Z,13.30
2019-05-22T20:31:19.342Z,13.30
2019-05-22T20:34:07.592Z,13.30
2019-05-22T20:36:55.469Z,13.30
2019-05-22T20:39:42.423Z,13.30
2019-05-22T20:42:31.905Z,13.10
2019-05-22T20:45:20.825Z,13.00
2019-05-22T20:48:12.131Z,13.00
2019-05-22T20:51:01.047Z,13.00
2019-05-22T20:53:53.946Z,13.00
2019-05-22T20:56:39.695Z,13.00
2019-05-22T20:59:27.118Z,12.90
2019-05-22T21:02:15.759Z,12.90
2019-05-22T21:05:05.709Z,12.90
2019-05-22T21:07:56.720Z,12.80
2019-05-22T21:10:46.673Z,12.70
2019-05-22T21:13:34.417Z,12.50
2019-05-22T21:16:22.996Z,12.40
2019-05-22T21:19:11.497Z,12.20
2019-05-22T21:22:00.363Z,12.10
2019-05-22T21:24:49.950Z,12.10
2019-05-22T21:27:38.245Z,12.00
2019-05-22T21:30:27.884Z,11.90
2019-05-22T21:33:15.623Z,11.90
2019-05-22T21:36:04.820Z,11.80
2019-05-22T21:38:51.851Z,11.70
2019-05-22T21:41:39.834Z,11.70
2019-05-22T21:44:27.575Z,11.70
2019-05-22T21:47:16.478Z,11.60
2019-05-22T21:50:04.968Z,11.50
2019-05-22T21:52:53.037Z,11.50
2019-05-22T21:55:45.431Z,11.50
2019-05-22T21:58:30.339Z,11.50
2019-05-22T22:01:19.518Z,11.50
2019-05-22T22:04:17.961Z,11.50
2019-05-22T22:07:05.880Z,11.50
2019-05-22T22:09:53.506Z,11.50
2019-05-22T22:12:41.681Z,11.50
2019-05-22T22:15:30.941Z,11.50
2019-05-22T22:18:19.728Z,11.50
2019-05-22T22:21:07.861Z,11.40
2019-05-22T22:23:55.234Z,11.40
2019-05-22T22:26:43.137Z,11.30
2019-05-22T22:29:30.650Z,11.30
2019-05-22T22:32:18.449Z,11.20
2019-05-22T22:35:09.183Z,11.10
2019-05-22T22:37:57.812Z,11.10
2019-05-22T22:40:47.647Z,11.00
2019-05-22T22:43:37.527Z,11.00
2019-05-22T22:46:29.110Z,11.00
2019-05-22T22:49:18.814Z,11.00
2019-05-22T22:52:06.185Z,11.00
2019-05-22T22:54:54.321Z,11.00
2019-05-22T22:57:42.135Z,10.90
2019-05-22T23:00:34.704Z,10.90
2019-05-22T23:03:24.616Z,10.90
2019-05-22T23:06:14.137Z,11.00
2019-05-22T23:09:02.008Z,11.10
2019-05-22T23:11:49.588Z,11.20
2019-05-22T23:14:38.453Z,11.20
2019-05-22T23:17:26.676Z,11.20
2019-05-22T23:20:13.405Z,11.20
2019-05-22T23:22:59.577Z,11.10
2019-05-22T23:25:47.326Z,11.00
2019-05-22T23:28:35.270Z,11.00
2019-05-22T23:31:22.515Z,11.00
2019-05-22T23:34:10.076Z,11.00
2019-05-22T23:36:57.969Z,10.90
2019-05-22T23:39:47.545Z,10.80
2019-05-22T23:42:39.433Z,10.90
2019-05-22T23:45:26.825Z,10.90
2019-05-22T23:48:15.871Z,10.80
2019-05-22T23:51:02.903Z,10.80
2019-05-22T23:53:51.134Z,10.70
2019-05-22T23:56:39.853Z,10.80
2019-05-22T23:59:27.866Z,11.00
